Time;durP1;ratioP1;P1;durP2;ratioP2;P2;SDS_P1;SDS_P2;PMS_P1;PMS_P2;Temp;Humidity;BMP_temperature;BMP_pressure;BME280_temperature;BME280_humidity;BME280_pressure;Samples;Min_cycle;Max_cycle;Signal;HPM_P1;HPM_P2
2021/10/18 00:01:31;;;;;;;18.47;8.00;;;;;;;9.15;100.00;-19405.47;5062174;28;20040;-67
2021/10/18 00:03:56;;;;;;;19.50;8.43;;;;;;;9.15;100.00;-19405.47;5060338;28;20041;-67
2021/10/18 00:06:22;;;;;;;22.47;8.30;;;;;;;9.18;100.00;-19406.28;5068563;28;20059;-67
2021/10/18 00:08:47;;;;;;;17.93;8.10;;;;;;;9.19;100.00;-19406.53;5058957;28;20616;-67
2021/10/18 00:11:13;;;;;;;15.83;8.20;;;;;;;9.20;100.00;-19406.81;5063588;28;20024;-67
2021/10/18 00:13:38;;;;;;;21.57;8.20;;;;;;;9.21;100.00;-19406.94;5066990;28;20016;-67
2021/10/18 00:16:04;;;;;;;16.97;7.83;;;;;;;9.25;100.00;-19408.13;5077378;28;20151;-67
2021/10/18 00:18:30;;;;;;;16.57;7.77;;;;;;;9.26;100.00;-19408.25;5067409;28;20032;-67
2021/10/18 00:20:56;;;;;;;17.57;8.03;;;;;;;9.26;100.00;-19408.38;5079376;28;20031;-67
2021/10/18 00:23:21;;;;;;;18.23;8.23;;;;;;;9.25;100.00;-19408.13;5068692;28;20038;-67
2021/10/18 00:25:47;;;;;;;17.20;7.73;;;;;;;9.21;100.00;-19406.94;5067858;28;20036;-67
2021/10/18 00:28:12;;;;;;;17.30;8.53;;;;;;;9.14;100.00;-19405.09;5068576;28;20024;-67
2021/10/18 00:30:38;;;;;;;16.03;8.13;;;;;;;9.09;100.00;-19403.91;5071258;28;20393;-67
2021/10/18 00:33:03;;;;;;;18.03;7.77;;;;;;;9.10;100.00;-19404.31;5061571;28;20397;-67
2021/10/18 00:35:29;;;;;;;18.50;7.70;;;;;;;9.07;100.00;-19403.50;5070215;28;20036;-67
2021/10/18 00:37:54;;;;;;;18.63;8.20;;;;;;;9.06;100.00;-19403.13;5066097;28;20032;-67
2021/10/18 00:40:20;;;;;;;16.77;7.50;;;;;;;9.05;100.00;-19402.84;5068002;28;20164;-67
2021/10/18 00:42:46;;;;;;;19.73;7.93;;;;;;;9.02;100.00;-19402.19;5064468;28;20051;-69
2021/10/18 00:45:12;;;;;;;17.47;7.93;;;;;;;9.04;100.00;-19402.59;5067432;28;20467;-69
2021/10/18 00:47:38;;;;;;;21.00;8.33;;;;;;;9.02;100.00;-19402.06;5068634;28;20042;-69
2021/10/18 00:50:05;;;;;;;19.50;8.73;;;;;;;9.05;100.00;-19402.84;5065596;28;20039;-68
2021/10/18 00:52:33;;;;;;;23.03;8.70;;;;;;;9.06;100.00;-19403.13;5067400;28;20582;-69
2021/10/18 00:54:59;;;;;;;18.80;8.73;;;;;;;9.10;100.00;-19404.16;5063986;28;20427;-69
2021/10/18 00:57:25;;;;;;;17.67;7.90;;;;;;;9.12;100.00;-19404.69;5074834;28;20032;-69
2021/10/18 00:59:51;;;;;;;17.37;7.93;;;;;;;9.17;100.00;-19405.88;5067442;28;20374;-69
2021/10/18 01:02:17;;;;;;;18.70;8.37;;;;;;;9.17;100.00;-19406.00;5070369;28;20063;-67
2021/10/18 01:04:43;;;;;;;17.00;7.33;;;;;;;9.19;100.00;-19406.53;5083622;22;20048;-68
2021/10/18 01:07:08;;;;;;;19.00;7.87;;;;;;;9.25;100.00;-19408.13;5081303;28;20252;-68
2021/10/18 01:09:34;;;;;;;18.40;7.70;;;;;;;9.30;100.00;-19409.44;5080327;28;20031;-68
2021/10/18 01:11:59;;;;;;;18.40;8.33;;;;;;;9.27;100.00;-19408.50;5081024;28;20047;-68
2021/10/18 01:14:28;;;;;;;21.07;7.43;;;;;;;9.22;100.00;-19407.34;5075388;28;20074;-68
2021/10/18 01:16:54;;;;;;;18.07;8.10;;;;;;;9.19;100.00;-19406.41;5080535;28;20039;-68
2021/10/18 01:19:22;;;;;;;22.17;8.13;;;;;;;9.15;100.00;-19405.47;5079723;28;20024;-68
2021/10/18 01:21:49;;;;;;;28.40;8.70;;;;;;;9.08;100.00;-19403.63;5080807;28;20109;-68
2021/10/18 01:24:17;;;;;;;18.13;8.00;;;;;;;9.02;100.00;-19402.19;5079090;28;20079;-68
2021/10/18 01:26:43;;;;;;;16.07;8.07;;;;;;;8.96;100.00;-19400.59;5080272;28;20036;-68
2021/10/18 01:29:08;;;;;;;20.77;9.43;;;;;;;8.91;100.00;-19399.28;5073804;28;20450;-68
2021/10/18 01:31:34;;;;;;;17.43;8.23;;;;;;;8.90;100.00;-19398.91;5076945;28;20411;-68
2021/10/18 01:34:00;;;;;;;27.13;10.00;;;;;;;8.88;100.00;-19398.50;5079447;28;20024;-68
2021/10/18 01:36:26;;;;;;;19.43;8.17;;;;;;;8.87;100.00;-19398.25;5080251;28;20111;-68
2021/10/18 01:38:51;;;;;;;19.10;9.17;;;;;;;8.86;100.00;-19397.84;5080255;28;20024;-68
2021/10/18 01:41:17;;;;;;;19.00;8.90;;;;;;;8.85;100.00;-19397.56;5077639;28;20553;-68
2021/10/18 01:43:43;;;;;;;16.43;8.47;;;;;;;8.82;100.00;-19397.03;5077656;28;20034;-68
2021/10/18 01:46:08;;;;;;;15.70;8.40;;;;;;;8.79;100.00;-19396.25;5072693;28;20074;-68
2021/10/18 01:48:34;;;;;;;18.83;9.07;;;;;;;8.79;100.00;-19396.25;5079121;28;20028;-68
2021/10/18 01:51:00;;;;;;;19.70;8.27;;;;;;;8.76;100.00;-19395.34;5071571;28;20260;-68
2021/10/18 01:53:25;;;;;;;19.40;9.03;;;;;;;8.74;100.00;-19394.94;5080342;28;20046;-68
2021/10/18 01:55:51;;;;;;;18.97;9.00;;;;;;;8.68;100.00;-19393.22;5071977;28;20059;-68
2021/10/18 01:58:17;;;;;;;21.70;8.93;;;;;;;8.66;100.00;-19392.81;5080330;28;20027;-68
2021/10/18 02:00:43;;;;;;;16.77;8.13;;;;;;;8.65;100.00;-19392.56;5079866;28;20031;-68
2021/10/18 02:03:09;;;;;;;18.20;8.40;;;;;;;8.57;100.00;-19390.44;5079397;28;20058;-68
2021/10/18 02:05:35;;;;;;;19.70;8.63;;;;;;;8.52;100.00;-19389.13;5079540;28;20601;-68
2021/10/18 02:08:00;;;;;;;19.20;8.20;;;;;;;8.49;100.00;-19388.34;5079783;28;20059;-68
2021/10/18 02:10:26;;;;;;;19.47;8.40;;;;;;;8.57;100.00;-19390.44;5079236;28;20123;-68
2021/10/18 02:12:52;;;;;;;22.60;8.37;;;;;;;8.74;100.00;-19394.94;5078039;28;20032;-68
2021/10/18 02:15:18;;;;;;;16.53;8.77;;;;;;;8.78;100.00;-19396.00;5079919;28;20038;-68
2021/10/18 02:17:44;;;;;;;19.00;8.67;;;;;;;8.72;100.00;-19394.41;5079565;28;20051;-68
2021/10/18 02:20:12;;;;;;;16.30;8.00;;;;;;;8.68;100.00;-19393.22;5079979;28;20028;-68
2021/10/18 02:22:37;;;;;;;17.60;8.77;;;;;;;8.57;100.00;-19390.44;5079514;28;20028;-68
2021/10/18 02:25:05;;;;;;;21.20;9.10;;;;;;;8.52;100.00;-19389.13;5079517;28;20081;-68
2021/10/18 02:27:31;;;;;;;20.20;9.00;;;;;;;8.48;100.00;-19388.09;5079159;28;20165;-68
2021/10/18 02:29:57;;;;;;;16.90;8.73;;;;;;;8.45;100.00;-19387.28;5076800;28;20119;-68
2021/10/18 02:32:22;;;;;;;19.03;8.70;;;;;;;8.44;100.00;-19387.03;5079807;28;20039;-68
2021/10/18 02:34:48;;;;;;;18.50;8.10;;;;;;;8.49;100.00;-19388.47;5072894;28;20020;-68
2021/10/18 02:37:13;;;;;;;17.00;8.13;;;;;;;8.54;100.00;-19389.66;5079825;28;20667;-68
2021/10/18 02:39:39;;;;;;;17.97;8.40;;;;;;;8.54;100.00;-19389.66;5076961;28;20103;-68
2021/10/18 02:42:04;;;;;;;16.87;7.90;;;;;;;8.58;100.00;-19390.72;5079960;28;20157;-68
2021/10/18 02:44:30;;;;;;;18.53;8.47;;;;;;;8.65;100.00;-19392.56;5073202;28;20020;-68
2021/10/18 02:46:55;;;;;;;16.90;8.50;;;;;;;8.69;100.00;-19393.50;5069558;28;20032;-68
2021/10/18 02:49:21;;;;;;;16.77;8.83;;;;;;;8.72;100.00;-19394.28;5071962;28;20133;-68
2021/10/18 02:51:48;;;;;;;16.60;7.90;;;;;;;8.76;100.00;-19395.47;5078392;28;20456;-68
2021/10/18 02:54:14;;;;;;;16.57;8.03;;;;;;;8.78;100.00;-19396.00;5077618;28;20043;-68
2021/10/18 02:56:40;;;;;;;15.43;7.60;;;;;;;8.81;100.00;-19396.78;5079231;28;20246;-68
2021/10/18 02:59:05;;;;;;;14.70;7.10;;;;;;;8.84;100.00;-19397.31;5078280;28;20031;-68
2021/10/18 03:01:31;;;;;;;15.67;7.77;;;;;;;8.86;100.00;-19397.84;5079383;28;20298;-68
2021/10/18 03:03:56;;;;;;;15.00;7.67;;;;;;;8.82;100.00;-19397.03;5077566;28;20213;-68
2021/10/18 03:06:22;;;;;;;17.80;7.40;;;;;;;8.83;100.00;-19397.19;5079921;28;20036;-68
2021/10/18 03:08:47;;;;;;;14.73;7.77;;;;;;;8.80;100.00;-19396.53;5078571;28;20388;-68
2021/10/18 03:11:13;;;;;;;15.50;7.90;;;;;;;8.75;100.00;-19395.19;5079424;28;20040;-68
2021/10/18 03:13:39;;;;;;;17.60;7.73;;;;;;;8.69;100.00;-19393.50;5077980;28;20035;-68
2021/10/18 03:16:05;;;;;;;18.00;7.90;;;;;;;8.59;100.00;-19390.97;5075633;28;20097;-68
2021/10/18 03:18:30;;;;;;;16.60;7.80;;;;;;;8.49;100.00;-19388.47;5079313;28;20378;-68
2021/10/18 03:20:56;;;;;;;15.77;7.93;;;;;;;8.39;100.00;-19385.72;5076386;28;20032;-68
2021/10/18 03:23:21;;;;;;;15.03;8.13;;;;;;;8.25;100.00;-19382.00;5079218;28;20038;-68
2021/10/18 03:25:47;;;;;;;17.00;7.97;;;;;;;8.13;100.00;-19379.09;5078738;28;20555;-68
2021/10/18 03:28:12;;;;;;;16.10;7.87;;;;;;;8.04;100.00;-19376.59;5079300;28;20027;-68
2021/10/18 03:30:38;;;;;;;16.40;7.80;;;;;;;7.97;100.00;-19374.88;5076010;28;20304;-68
2021/10/18 03:33:04;;;;;;;18.27;8.70;;;;;;;7.89;100.00;-19372.78;5079323;28;20085;-68
2021/10/18 03:35:29;;;;;;;19.10;8.17;;;;;;;7.70;100.00;-19367.75;5075159;28;20160;-69
2021/10/18 03:37:55;;;;;;;19.53;8.80;;;;;;;7.50;100.00;-19362.75;5077020;28;20028;-68
2021/10/18 03:40:20;;;;;;;18.30;8.87;;;;;;;7.39;100.00;-19359.69;5078527;28;20044;-68
2021/10/18 03:42:46;;;;;;;16.43;8.60;;;;;;;7.33;100.00;-19358.25;5074007;28;20078;-68
2021/10/18 03:45:12;;;;;;;18.73;9.27;;;;;;;7.16;100.00;-19353.75;5079143;28;20043;-68
2021/10/18 03:47:38;;;;;;;21.10;10.23;;;;;;;7.06;100.00;-19351.25;5083244;28;20067;-68
2021/10/18 03:50:05;;;;;;;22.60;10.73;;;;;;;7.17;100.00;-19354.03;5079959;28;20496;-68
2021/10/18 03:52:31;;;;;;;24.57;10.53;;;;;;;7.19;100.00;-19354.69;5070642;28;20032;-68
2021/10/18 03:54:56;;;;;;;23.50;10.07;;;;;;;7.08;100.00;-19351.66;5082176;28;20167;-68
2021/10/18 03:57:22;;;;;;;19.93;9.20;;;;;;;7.03;100.00;-19350.59;5083158;28;20024;-68
2021/10/18 03:59:47;;;;;;;23.43;10.03;;;;;;;7.07;100.00;-19351.38;5071934;28;20071;-69
2021/10/18 04:02:14;;;;;;;22.43;9.97;;;;;;;7.15;100.00;-19353.50;5082064;28;20036;-68
2021/10/18 04:04:40;;;;;;;30.77;11.27;;;;;;;7.23;100.00;-19355.59;5082021;28;20546;-68
2021/10/18 04:07:06;;;;;;;21.60;10.03;;;;;;;7.25;100.00;-19356.13;5082977;28;20028;-68
2021/10/18 04:09:32;;;;;;;19.13;9.57;;;;;;;7.19;100.00;-19354.56;5081465;28;20495;-68
2021/10/18 04:11:57;;;;;;;22.53;10.03;;;;;;;7.14;100.00;-19353.34;5082974;28;20036;-68
2021/10/18 04:14:23;;;;;;;24.07;9.57;;;;;;;7.20;100.00;-19354.81;5082249;28;20260;-68
2021/10/18 04:16:48;;;;;;;21.67;9.40;;;;;;;7.24;100.00;-19355.88;5082586;28;20058;-68
2021/10/18 04:19:14;;;;;;;21.00;9.43;;;;;;;7.31;100.00;-19357.72;5075802;28;20107;-68
2021/10/18 04:21:39;;;;;;;18.50;9.17;;;;;;;7.30;100.00;-19357.59;5080356;28;20032;-68
2021/10/18 04:24:05;;;;;;;19.07;9.23;;;;;;;7.27;100.00;-19356.81;5077074;28;20020;-68
2021/10/18 04:26:31;;;;;;;26.10;11.33;;;;;;;7.27;100.00;-19356.66;5080666;28;20020;-68
2021/10/18 04:28:56;;;;;;;18.10;9.23;;;;;;;7.30;100.00;-19357.47;5081362;28;20464;-68
2021/10/18 04:31:25;;;;;;;19.33;9.13;;;;;;;7.28;100.00;-19356.94;5081115;28;20035;-68
2021/10/18 04:33:51;;;;;;;26.13;9.63;;;;;;;7.26;100.00;-19356.41;5078501;28;20107;-68
2021/10/18 04:36:16;;;;;;;18.93;8.97;;;;;;;7.21;100.00;-19355.22;5077220;28;20575;-68
2021/10/18 04:38:42;;;;;;;17.70;9.10;;;;;;;7.14;100.00;-19353.34;5081718;28;20081;-70
2021/10/18 04:41:07;;;;;;;23.43;9.77;;;;;;;7.13;100.00;-19353.09;5081897;28;20031;-70
2021/10/18 04:43:33;;;;;;;19.80;9.37;;;;;;;7.07;100.00;-19351.38;5080916;28;20028;-68
2021/10/18 04:45:58;;;;;;;19.93;10.37;;;;;;;7.02;100.00;-19350.19;5074514;28;20028;-68
2021/10/18 04:48:24;;;;;;;24.80;9.80;;;;;;;6.95;100.00;-19348.47;5082081;28;20040;-70
2021/10/18 04:50:49;;;;;;;19.97;9.77;;;;;;;6.94;100.00;-19348.22;5079407;28;20478;-70
2021/10/18 04:53:15;;;;;;;25.53;10.50;;;;;;;6.86;100.00;-19346.09;5081978;28;20207;-70
2021/10/18 04:55:40;;;;;;;25.50;10.57;;;;;;;6.97;100.00;-19349.00;5074770;28;20495;-68
2021/10/18 04:58:06;;;;;;;23.57;10.77;;;;;;;7.04;100.00;-19350.84;5080897;28;20024;-68
2021/10/18 05:00:36;;;;;;;21.13;10.27;;;;;;;7.01;100.00;-19349.94;5081259;28;20516;-68
2021/10/18 05:03:02;;;;;;;19.83;9.70;;;;;;;6.93;100.00;-19347.94;5081093;28;20042;-68
2021/10/18 05:05:27;;;;;;;20.57;10.20;;;;;;;6.83;100.00;-19345.31;5073266;28;20040;-68
2021/10/18 05:08:07;;;;;;;19.67;10.17;;;;;;;6.75;100.00;-19343.19;5081921;28;20027;-68
2021/10/18 05:10:35;;;;;;;21.27;9.67;;;;;;;6.71;100.00;-19342.13;5080122;28;20032;-68
2021/10/18 05:13:00;;;;;;;21.63;9.67;;;;;;;6.75;100.00;-19343.19;5081116;28;20510;-69
2021/10/18 05:15:27;;;;;;;21.53;10.33;;;;;;;6.83;100.00;-19345.31;5071162;28;20215;-69
2021/10/18 05:17:52;;;;;;;21.77;9.63;;;;;;;6.91;100.00;-19347.41;5071391;28;20118;-68
2021/10/18 05:20:18;;;;;;;24.30;10.87;;;;;;;6.99;100.00;-19349.41;5079729;28;20032;-69
2021/10/18 05:22:43;;;;;;;22.20;9.80;;;;;;;7.05;100.00;-19351.00;5081389;28;20046;-69
2021/10/18 05:25:09;;;;;;;20.07;10.13;;;;;;;7.09;100.00;-19351.91;5080247;28;20353;-69
2021/10/18 05:27:36;;;;;;;18.10;9.60;;;;;;;7.13;100.00;-19352.97;5081064;28;20036;-69
2021/10/18 05:30:08;;;;;;;22.97;9.77;;;;;;;7.10;100.00;-19352.16;5073899;28;20056;-69
2021/10/18 05:32:34;;;;;;;19.53;9.20;;;;;;;7.06;100.00;-19351.25;5078118;28;20108;-69
2021/10/18 05:34:59;;;;;;;20.20;9.47;;;;;;;7.02;100.00;-19350.31;5076812;28;20103;-69
2021/10/18 05:37:25;;;;;;;20.80;9.43;;;;;;;6.98;100.00;-19349.25;5080958;28;20043;-68
2021/10/18 05:39:50;;;;;;;18.63;8.50;;;;;;;6.97;100.00;-19348.88;5069750;28;20093;-69
2021/10/18 05:42:21;;;;;;;19.87;9.10;;;;;;;6.92;100.00;-19347.56;5073116;28;20095;-70
2021/10/18 05:44:47;;;;;;;19.07;9.47;;;;;;;6.84;100.00;-19345.56;5077655;28;20051;-70
2021/10/18 05:47:12;;;;;;;19.30;9.70;;;;;;;6.81;100.00;-19344.78;5078033;28;20032;-70
2021/10/18 05:49:38;;;;;;;20.10;9.30;;;;;;;6.89;100.00;-19346.88;5074886;28;20201;-69
2021/10/18 05:52:05;;;;;;;18.87;9.30;;;;;;;6.96;100.00;-19348.75;5078682;28;20035;-69
2021/10/18 05:54:30;;;;;;;19.57;9.90;;;;;;;7.01;100.00;-19350.06;5073505;28;20032;-69
2021/10/18 05:56:56;;;;;;;20.93;9.60;;;;;;;7.11;100.00;-19352.44;5073247;28;20080;-69
2021/10/18 05:59:21;;;;;;;21.13;9.33;;;;;;;7.13;100.00;-19352.97;5076906;28;20666;-69
2021/10/18 06:01:47;;;;;;;23.07;9.37;;;;;;;7.09;100.00;-19351.91;5080709;28;20027;-70
2021/10/18 06:04:12;;;;;;;18.17;8.37;;;;;;;7.05;100.00;-19351.13;5074466;28;20504;-69
2021/10/18 06:06:38;;;;;;;19.33;9.20;;;;;;;6.99;100.00;-19349.53;5080383;28;20032;-69
2021/10/18 06:09:05;;;;;;;17.87;8.13;;;;;;;6.99;100.00;-19349.53;5074366;28;20178;-70
2021/10/18 06:11:31;;;;;;;19.27;8.83;;;;;;;7.09;100.00;-19351.91;5080235;28;20228;-70
2021/10/18 06:13:57;;;;;;;16.57;8.03;;;;;;;7.11;100.00;-19352.44;5076205;28;20028;-69
2021/10/18 06:16:22;;;;;;;19.80;8.07;;;;;;;7.17;100.00;-19354.03;5080312;28;20043;-70
2021/10/18 06:18:48;;;;;;;18.00;8.63;;;;;;;7.24;100.00;-19355.88;5077807;28;20031;-69
2021/10/18 06:21:13;;;;;;;17.27;8.03;;;;;;;7.37;100.00;-19359.31;5080558;28;20062;-69
2021/10/18 06:23:39;;;;;;;16.80;8.00;;;;;;;7.46;100.00;-19361.69;5080089;28;20017;-69
2021/10/18 06:26:04;;;;;;;17.10;8.13;;;;;;;7.60;100.00;-19365.25;5081705;28;20299;-69
2021/10/18 06:28:30;;;;;;;16.13;8.13;;;;;;;7.69;100.00;-19367.50;5079970;28;20510;-69
2021/10/18 06:30:55;;;;;;;16.20;8.73;;;;;;;7.84;100.00;-19371.44;5073786;28;20270;-69
2021/10/18 06:33:21;;;;;;;15.93;8.13;;;;;;;7.95;100.00;-19374.34;5079680;28;20032;-69
2021/10/18 06:35:47;;;;;;;13.20;7.03;;;;;;;8.04;100.00;-19376.72;5066661;28;20036;-69
2021/10/18 06:38:19;;;;;;;15.00;7.70;;;;;;;8.25;100.00;-19382.00;5080268;28;20027;-69
2021/10/18 06:40:46;;;;;;;13.88;7.50;;;;;;;8.48;100.00;-19388.09;5067888;28;20050;-69
2021/10/18 06:43:12;;;;;;;19.17;7.37;;;;;;;8.76;100.00;-19395.47;5079447;28;20031;-69
2021/10/18 06:45:39;;;;;;;13.90;6.83;;;;;;;8.91;100.00;-19399.28;5066431;28;20031;-69
2021/10/18 06:48:04;;;;;;;12.53;6.77;;;;;;;9.07;100.00;-19403.38;5079457;28;20258;-69
2021/10/18 06:50:32;;;;;;;13.50;6.63;;;;;;;9.27;100.00;-19408.50;5074109;28;20099;-69
2021/10/18 06:52:58;;;;;;;12.97;7.00;;;;;;;9.39;100.00;-19411.81;5079556;28;20069;-69
2021/10/18 06:55:26;;;;;;;13.20;6.13;;;;;;;9.47;100.00;-19413.66;5070324;28;20507;-69
2021/10/18 06:57:52;;;;;;;13.77;6.83;;;;;;;9.61;100.00;-19417.34;5078811;28;20860;-69
2021/10/18 07:00:17;;;;;;;11.83;5.90;;;;;;;9.87;100.00;-19424.06;5075980;28;20073;-69
2021/10/18 07:02:43;;;;;;;12.87;6.17;;;;;;;10.07;100.00;-19429.34;5079752;28;20024;-69
2021/10/18 07:05:08;;;;;;;12.53;5.97;;;;;;;10.13;100.00;-19430.78;5075925;28;20040;-69
2021/10/18 07:07:37;;;;;;;10.63;5.87;;;;;;;10.10;100.00;-19430.13;5079390;28;20020;-69
2021/10/18 07:10:04;;;;;;;11.20;6.17;;;;;;;10.11;100.00;-19430.25;5077441;28;20244;-69
2021/10/18 07:12:31;;;;;;;10.47;5.83;;;;;;;10.06;100.00;-19428.94;5079314;28;20240;-69
2021/10/18 07:14:59;;;;;;;15.73;6.27;;;;;;;10.08;100.00;-19429.59;5078132;28;20485;-69
2021/10/18 07:17:26;;;;;;;10.80;5.97;;;;;;;9.92;100.00;-19425.50;5079328;28;20468;-69
2021/10/18 07:19:52;;;;;;;12.40;6.20;;;;;;;9.80;100.00;-19422.22;5080738;28;20024;-69
2021/10/18 07:22:19;;;;;;;13.97;6.50;;;;;;;9.70;100.00;-19419.72;5083320;28;20027;-67
2021/10/18 07:24:45;;;;;;;11.63;6.00;;;;;;;9.58;100.00;-19416.69;5072264;28;20288;-68
2021/10/18 07:27:10;;;;;;;15.40;6.87;;;;;;;9.45;100.00;-19413.13;5081608;28;20099;-68
2021/10/18 07:29:37;;;;;;;10.77;6.17;;;;;;;9.58;100.00;-19416.56;5073431;28;20380;-67
2021/10/18 07:32:02;;;;;;;11.60;5.83;;;;;;;9.62;100.00;-19417.59;5081386;28;20091;-68
2021/10/18 07:34:28;;;;;;;11.57;5.93;;;;;;;9.79;100.00;-19422.09;5074608;28;20107;-68
2021/10/18 07:36:54;;;;;;;12.97;6.43;;;;;;;9.98;100.00;-19426.97;5081370;28;20031;-67
2021/10/18 07:39:25;;;;;;;10.80;6.10;;;;;;;9.91;100.00;-19425.25;5075820;28;20025;-67
2021/10/18 07:41:54;;;;;;;13.43;6.78;;;;;;;10.09;100.00;-19429.84;5081735;28;20047;-68
2021/10/18 07:44:24;;;;;;;10.53;6.03;;;;;;;10.25;100.00;-19433.94;5077243;28;20059;-68
2021/10/18 07:46:50;;;;;;;13.30;6.07;;;;;;;10.62;100.00;-19443.53;5082291;28;20111;-68
2021/10/18 07:49:16;;;;;;;9.73;5.50;;;;;;;11.11;100.00;-19456.31;5080177;28;20378;-67
2021/10/18 07:51:41;;;;;;;11.57;5.20;;;;;;;11.59;100.00;-19468.53;5083147;28;20492;-68
2021/10/18 07:54:07;;;;;;;9.00;5.10;;;;;;;11.94;100.00;-19477.59;5077446;28;20039;-68
2021/10/18 07:56:33;;;;;;;11.33;5.47;;;;;;;12.19;100.00;-19484.03;5082194;28;20680;-68
2021/10/18 07:58:58;;;;;;;10.37;5.00;;;;;;;11.80;100.00;-19473.94;5078768;28;20295;-68
2021/10/18 08:01:24;;;;;;;10.37;5.67;;;;;;;11.88;100.00;-19476.03;5082712;28;20038;-67
2021/10/18 08:03:50;;;;;;;11.40;5.70;;;;;;;12.14;100.00;-19482.88;5079849;28;20059;-68
2021/10/18 08:06:16;;;;;;;10.60;5.17;;;;;;;11.98;100.00;-19478.66;5082194;28;20292;-68
2021/10/18 08:08:46;;;;;;;9.10;4.90;;;;;;;11.59;100.00;-19468.53;5081024;28;20123;-68
2021/10/18 08:11:12;;;;;;;9.83;5.87;;;;;;;11.56;100.00;-19467.75;5082250;28;20321;-68
2021/10/18 08:13:38;;;;;;;12.07;5.47;;;;;;;11.43;100.00;-19464.47;5081973;28;20055;-68
2021/10/18 08:16:04;;;;;;;11.03;5.67;;;;;;;11.57;100.00;-19468.13;5082259;28;20423;-68
2021/10/18 08:18:30;;;;;;;10.27;5.13;;;;;;;11.54;100.00;-19467.34;5081931;28;20256;-68
2021/10/18 08:20:56;;;;;;;10.73;5.87;;;;;;;11.49;100.00;-19466.03;5069776;28;20105;-72
2021/10/18 08:23:21;;;;;;;9.80;5.93;;;;;;;11.45;100.00;-19465.13;5082183;28;20028;-68
2021/10/18 08:25:47;;;;;;;13.47;6.03;;;;;;;11.52;100.00;-19466.81;5070299;28;20027;-68
2021/10/18 08:28:12;;;;;;;10.53;5.60;;;;;;;11.65;100.00;-19470.25;5081706;28;20283;-68
2021/10/18 08:30:38;;;;;;;13.10;6.40;;;;;;;11.70;100.00;-19471.56;5070649;28;20036;-68
2021/10/18 08:33:04;;;;;;;10.93;5.43;;;;;;;11.79;100.00;-19473.78;5081978;28;20024;-68
2021/10/18 08:35:30;;;;;;;10.27;5.33;;;;;;;11.61;100.00;-19469.19;5071901;28;20028;-68
2021/10/18 08:40:59;;;;;;;11.50;5.50;;;;;;;11.61;100.00;-19469.19;5073107;28;20089;-68
2021/10/18 08:46:11;;;;;;;10.73;5.63;;;;;;;12.08;100.00;-19481.28;5076031;28;20047;-68
2021/10/18 08:48:38;;;;;;;9.67;5.20;;;;;;;12.21;100.00;-19484.69;5080323;28;20048;-67
2021/10/18 08:51:03;;;;;;;11.27;4.87;;;;;;;12.19;100.00;-19484.16;5080914;28;20090;-68
2021/10/18 08:53:29;;;;;;;9.27;5.13;;;;;;;12.08;100.00;-19481.28;5081920;28;20442;-68
2021/10/18 08:55:54;;;;;;;12.77;5.63;;;;;;;12.36;100.00;-19488.50;5076071;28;20446;-68
2021/10/18 08:58:20;;;;;;;14.73;5.73;;;;;;;12.63;100.00;-19495.47;5081511;28;20024;-68
2021/10/18 09:00:53;;;;;;;11.20;5.60;;;;;;;12.84;100.00;-19500.84;5077577;28;20355;-68
2021/10/18 09:03:34;;;;;;;9.07;5.07;;;;;;;12.66;100.00;-19496.25;5081018;28;20488;-68
2021/10/18 09:06:23;;;;;;;10.97;5.20;;;;;;;12.59;100.00;-19494.41;5081818;28;20181;-68
2021/10/18 09:08:53;;;;;;;10.30;5.53;;;;;;;12.38;100.00;-19488.91;5079530;28;20041;-68
2021/10/18 09:11:26;;;;;;;10.23;5.37;;;;;;;12.51;100.00;-19492.31;5081550;28;20024;-68
2021/10/18 09:13:57;;;;;;;13.40;5.90;;;;;;;12.64;100.00;-19495.59;5080986;28;20028;-68
2021/10/18 09:16:55;;;;;;;10.15;5.25;;;;;;;12.68;100.00;-19496.78;5081505;28;20027;-68
2021/10/18 09:19:25;;;;;;;10.60;5.23;;;;;;;12.96;100.00;-19503.88;4986359;28;20599;-71
2021/10/18 09:21:56;;;;;;;9.20;5.37;;;;;;;13.09;100.00;-19507.28;4998219;28;20026;-68
2021/10/18 09:24:40;;;;;;;11.45;5.53;;;;;;;13.04;100.00;-19506.09;4998438;28;20042;-68
2021/10/18 09:27:28;;;;;;;9.90;5.57;;;;;;;12.92;100.00;-19502.94;4998018;28;20213;-68
2021/10/18 09:29:53;;;;;;;9.60;5.07;;;;;;;13.11;100.00;-19507.81;4997703;28;20203;-68
2021/10/18 09:32:30;;;;;;;10.10;5.70;;;;;;;13.17;100.00;-19509.38;4998218;28;20034;-68
2021/10/18 09:35:18;;;;;;;8.10;4.77;;;;;;;13.23;100.00;-19510.94;4996824;28;20803;-68
2021/10/18 09:37:45;;;;;;;12.87;6.17;;;;;;;13.68;100.00;-19522.63;4978836;28;20027;-68
2021/10/18 09:40:32;;;;;;;11.70;5.47;;;;;;;13.47;100.00;-19517.25;4991773;28;20117;-68
2021/10/18 09:46:17;;;;;;;10.70;5.60;;;;;;;13.57;100.00;-19519.59;4939599;28;20066;-68
2021/10/18 10:51:38;;;;;;;11.53;5.27;;;;;;;15.46;100.00;-19568.34;5074824;28;20121;-68
2021/10/18 10:54:05;;;;;;;10.53;5.63;;;;;;;15.40;100.00;-19566.75;5078934;28;20042;-68
2021/10/18 10:56:48;;;;;;;12.30;5.40;;;;;;;15.29;100.00;-19563.88;5079248;28;20024;-68
2021/10/18 10:59:24;;;;;;;13.57;6.60;;;;;;;15.49;100.00;-19569.25;5078701;28;20031;-68
2021/10/18 11:02:29;;;;;;;10.43;5.20;;;;;;;15.60;100.00;-19572.00;5079055;28;20501;-68
2021/10/18 11:04:54;;;;;;;10.77;5.50;;;;;;;15.61;100.00;-19572.25;5015393;28;20132;-68
2021/10/18 11:08:01;;;;;;;12.90;6.53;;;;;;;14.97;100.00;-19555.78;5015618;28;20056;-68
2021/10/18 11:10:27;;;;;;;12.17;5.47;;;;;;;14.63;100.00;-19547.13;5015715;28;20318;-68
2021/10/18 11:13:04;;;;;;;11.47;6.03;;;;;;;14.72;100.00;-19549.22;5015574;28;20292;-68
2021/10/18 11:15:29;;;;;;;11.90;5.83;;;;;;;15.05;100.00;-19557.75;5015958;28;20327;-68
2021/10/18 11:17:55;;;;;;;11.23;5.53;;;;;;;14.87;100.00;-19553.28;5016002;28;20567;-68
2021/10/18 11:20:26;;;;;;;12.07;5.77;;;;;;;15.10;100.00;-19559.03;5015711;28;20248;-68
2021/10/18 11:22:54;;;;;;;11.23;5.53;;;;;;;15.42;100.00;-19567.28;5015551;28;20176;-68
2021/10/18 11:25:25;;;;;;;11.70;6.30;;;;;;;15.75;100.00;-19575.94;5015606;28;20049;-68
2021/10/18 11:27:54;;;;;;;12.85;6.38;;;;;;;15.71;100.00;-19574.88;5016020;28;20109;-68
2021/10/18 11:30:22;;;;;;;12.57;5.90;;;;;;;15.57;100.00;-19571.09;5015718;28;20029;-68
2021/10/18 11:33:02;;;;;;;14.43;6.40;;;;;;;15.36;100.00;-19565.84;5015545;28;20037;-68
2021/10/18 11:35:29;;;;;;;12.00;5.53;;;;;;;15.01;100.00;-19556.81;5015928;28;20167;-68
2021/10/18 11:37:58;;;;;;;11.97;5.30;;;;;;;15.14;100.00;-19560.22;5015742;28;20030;-68
2021/10/18 11:40:51;;;;;;;12.77;5.70;;;;;;;15.39;100.00;-19566.63;5022842;28;20594;-69
2021/10/18 11:43:24;;;;;;;10.55;5.10;;;;;;;15.91;100.00;-19579.84;5072306;28;20430;-68
2021/10/18 11:45:53;;;;;;;10.37;5.33;;;;;;;16.14;100.00;-19585.84;5073450;28;20579;-69
2021/10/18 11:48:22;;;;;;;10.43;5.30;;;;;;;16.22;100.00;-19587.94;5078813;28;20024;-68
2021/10/18 11:50:53;;;;;;;9.50;4.97;;;;;;;16.07;100.00;-19584.03;5076066;28;20028;-70
2021/10/18 11:53:20;;;;;;;9.57;5.40;;;;;;;15.89;100.00;-19579.31;5078848;28;20437;-69
2021/10/18 11:55:52;;;;;;;10.20;5.40;;;;;;;15.77;100.00;-19576.44;5073860;28;20365;-68
2021/10/18 11:58:25;;;;;;;9.93;5.03;;;;;;;15.38;100.00;-19566.25;5078407;28;20097;-68
2021/10/18 12:01:02;;;;;;;14.93;5.40;;;;;;;15.82;100.00;-19577.63;5075223;28;20028;-68
2021/10/18 12:03:30;;;;;;;9.10;5.10;;;;;;;15.98;100.00;-19581.69;5077792;28;20420;-69
2021/10/18 12:05:57;;;;;;;10.57;5.13;;;;;;;15.97;100.00;-19581.41;5075946;28;20123;-69
2021/10/18 12:08:31;;;;;;;11.60;5.20;;;;;;;15.74;100.00;-19575.66;5082298;28;20024;-68
2021/10/18 12:10:57;;;;;;;8.77;4.70;;;;;;;15.60;100.00;-19571.88;5082265;28;20101;-68
2021/10/18 12:13:34;;;;;;;9.63;4.93;;;;;;;15.64;100.00;-19572.91;5082363;28;20077;-68
2021/10/18 12:16:24;;;;;;;8.93;4.37;;;;;;;15.76;100.00;-19576.06;5068992;28;20646;-68
2021/10/18 12:18:56;;;;;;;8.13;4.23;;;;;;;15.78;100.00;-19576.72;5069234;28;20048;-69
2021/10/18 12:21:31;;;;;;;8.67;4.17;;;;;;;15.90;100.00;-19579.59;5073263;28;20410;-69
2021/10/18 12:24:05;;;;;;;10.00;4.30;;;;;;;16.07;100.00;-19584.03;5077731;28;20477;-69
2021/10/18 12:26:33;;;;;;;9.13;4.60;;;;;;;16.15;100.00;-19586.13;5075486;28;20036;-68
2021/10/18 12:29:07;;;;;;;8.70;4.27;;;;;;;16.11;100.00;-19585.06;5064421;28;20032;-68